Union Trader — SVAX6 — position and weather

sailwx.info

Track history (hours):
 
Tides and Currents Weather Stations Pressure Air Temp Water Temp Dewpoint Dewpoint Depression Visibility Wind Speed Wind Dir Waves Ship Positions

Union Trader

Last reported at 2015-May-10 04:30 UTC. Time now 2015-May-23 13:28 UTC.
Position N 30°20' W 088°31'.
Warning: this ship's position is 13 days out of date.

Length 190 m; draft 7.2 m.

Type: Cargo ship. MMSI: 240982000.

Date/timePositionNaut miles runAvg speedWind from/ knotsBaromVisibWave heightAir tempDewpointWater temp
2015-May-10 04:30N 30°20' W 088°31'12 0.4
2015-May-08 21:33N 30°08' W 088°32'1 0.2
2015-May-08 14:31N 30°06' W 088°33'0 0.0
2015-May-08 13:07N 30°06' W 088°32'0 0.0
2015-May-08 07:31N 30°07' W 088°32'0 0.0
2015-May-08 06:31N 30°07' W 088°32'0 0.0
2015-May-07 07:04N 30°07' W 088°33'0 0.0
2015-May-07 06:31N 30°07' W 088°33'0 0.0
2015-May-07 05:28N 30°07' W 088°33'0 0.0
2015-May-07 04:31N 30°07' W 088°33'0 0.0
2015-May-07 03:31N 30°07' W 088°33'0 0.0
2015-May-07 00:25N 30°07' W 088°33'0 0.0
2015-May-06 20:16N 30°07' W 088°33'  
2015-Apr-30 15:25N 29°10' W 094°33'5 6.2
2015-Apr-30 14:33N 29°15' W 094°35'1110.9
2015-Apr-30 13:33N 29°21' W 094°45'1211.6
2015-Apr-30 12:33N 29°30' W 094°53'1111.1
2015-Apr-30 11:33N 29°40' W 094°59'7 7.5
2015-Apr-30 10:33N 29°46' W 095°04'5 5.4
2015-Apr-30 09:33N 29°45' W 095°11'4 4.3
2015-Apr-30 08:33N 29°44' W 095°15'1 1.2
2015-Apr-30 07:31N 29°44' W 095°17'0 0.0
2015-Apr-30 06:31N 29°44' W 095°17'0 0.0
2015-Apr-30 05:31N 29°44' W 095°17'0 0.0
2015-Apr-30 04:31N 29°44' W 095°17'  
Track history (hours):
 
Tides and Currents Weather Stations Pressure Air Temp Water Temp Dewpoint Dewpoint Depression Visibility Wind Speed Wind Dir Waves Ship Positions

Union Trader

Last reported at 2015-May-10 04:30 UTC. Time now 2015-May-23 13:28 UTC.
Position N 30°20' W 088°31'.
Warning: this ship's position is 13 days out of date.

Length 190 m; draft 7.2 m.

Type: Cargo ship. MMSI: 240982000.

Date/timePositionNaut miles runAvg speedWind from/ knotsBaromVisibWave heightAir tempDewpointWater temp
2015-May-10 04:30N 30°20' W 088°31'12 0.4
2015-May-08 21:33N 30°08' W 088°32'1 0.2
2015-May-08 14:31N 30°06' W 088°33'0 0.0
2015-May-08 13:07N 30°06' W 088°32'0 0.0
2015-May-08 07:31N 30°07' W 088°32'0 0.0
2015-May-08 06:31N 30°07' W 088°32'0 0.0
2015-May-07 07:04N 30°07' W 088°33'0 0.0
2015-May-07 06:31N 30°07' W 088°33'0 0.0
2015-May-07 05:28N 30°07' W 088°33'0 0.0
2015-May-07 04:31N 30°07' W 088°33'0 0.0
2015-May-07 03:31N 30°07' W 088°33'0 0.0
2015-May-07 00:25N 30°07' W 088°33'0 0.0
2015-May-06 20:16N 30°07' W 088°33'  
2015-Apr-30 15:25N 29°10' W 094°33'5 6.2
2015-Apr-30 14:33N 29°15' W 094°35'1110.9
2015-Apr-30 13:33N 29°21' W 094°45'1211.6
2015-Apr-30 12:33N 29°30' W 094°53'1111.1
2015-Apr-30 11:33N 29°40' W 094°59'7 7.5
2015-Apr-30 10:33N 29°46' W 095°04'5 5.4
2015-Apr-30 09:33N 29°45' W 095°11'4 4.3
2015-Apr-30 08:33N 29°44' W 095°15'1 1.2
2015-Apr-30 07:31N 29°44' W 095°17'0 0.0
2015-Apr-30 06:31N 29°44' W 095°17'0 0.0
2015-Apr-30 05:31N 29°44' W 095°17'0 0.0
2015-Apr-30 04:31N 29°44' W 095°17'  

Dump ship's entire track history